EZY351Q EGGD-EGPH
Flight info
| Callsign | EZY351Q |
|---|---|
| Flight time | 0h 51m |
| Altitude | 26000 |
| Route | BCN P69 DIZIM DCT KISWO/N0402F270 DCT AVTIC DCT ANJAK/N0407F280 N38 NOKIN UP16 RIBEL DCT INPIP |
| Aircraft | A320/M-SDE3FGHIRWY/LB1 |
Departure
| Time | 2026-04-25 19:24 |
|---|---|
| Airport | Bristol Airport (EGGD) |
Arrival
| Time | 2026-04-25 20:16 |
|---|---|
| Airport | Edinburgh Airport (EGPH) |
| Time | Latitude | Longitude | Altitude | Speed | Heading |
|---|---|---|---|---|---|
| 2026-04-25 19:02 | 51.38553 | -2.71536 | 615 ft | 0 kts | 357° |
| 2026-04-25 19:17 | 51.38550 | -2.71535 | 614 ft | 2 kts | 357° |
| 2026-04-25 19:17 | 51.38533 | -2.71533 | 625 ft | 3 kts | 346° |
| 2026-04-25 19:18 | 51.38514 | -2.71523 | 614 ft | 3 kts | 326° |
| 2026-04-25 19:18 | 51.38500 | -2.71503 | 620 ft | 3 kts | 285° |
| 2026-04-25 19:18 | 51.38499 | -2.71490 | 629 ft | 0 kts | 267° |
| 2026-04-25 19:18 | 51.38499 | -2.71489 | 629 ft | 0 kts | 267° |
| 2026-04-25 19:21 | 51.38439 | -2.71645 | 622 ft | 15 kts | 252° |
| 2026-04-25 19:21 | 51.38430 | -2.71871 | 616 ft | 22 kts | 270° |
| 2026-04-25 19:22 | 51.38428 | -2.72125 | 621 ft | 21 kts | 266° |
| 2026-04-25 19:22 | 51.38419 | -2.72351 | 618 ft | 21 kts | 266° |
| 2026-04-25 19:22 | 51.38400 | -2.72835 | 620 ft | 23 kts | 266° |
| 2026-04-25 19:23 | 51.38390 | -2.73085 | 621 ft | 21 kts | 266° |
| 2026-04-25 19:23 | 51.38338 | -2.73329 | 632 ft | 10 kts | 210° |
| 2026-04-25 19:23 | 51.38267 | -2.73340 | 623 ft | 12 kts | 168° |
| 2026-04-25 19:24 | 51.38215 | -2.73187 | 626 ft | 29 kts | 89° |
| 2026-04-25 19:24 | 51.38240 | -2.72584 | 624 ft | 90 kts | 86° |
| 2026-04-25 19:24 | 51.38355 | -2.69441 | 1290 ft | 159 kts | 87° |
| 2026-04-25 19:25 | 51.38455 | -2.65649 | 2467 ft | 187 kts | 87° |
| 2026-04-25 19:25 | 51.38525 | -2.63447 | 2816 ft | 211 kts | 87° |
| 2026-04-25 19:25 | 51.38601 | -2.61005 | 3242 ft | 233 kts | 87° |
| 2026-04-25 19:26 | 51.38684 | -2.58283 | 3779 ft | 255 kts | 86° |
| 2026-04-25 19:26 | 51.39035 | -2.55459 | 4572 ft | 263 kts | 64° |
| 2026-04-25 19:26 | 51.40244 | -2.53271 | 5428 ft | 269 kts | 30° |
| 2026-04-25 19:26 | 51.42048 | -2.52529 | 6274 ft | 274 kts | 356° |
| 2026-04-25 19:27 | 51.43827 | -2.53518 | 7112 ft | 279 kts | 323° |
| 2026-04-25 19:27 | 51.44737 | -2.55037 | 7661 ft | 281 kts | 304° |
| 2026-04-25 19:27 | 51.45968 | -2.58707 | 8888 ft | 283 kts | 295° |
| 2026-04-25 19:27 | 51.46795 | -2.61598 | 9777 ft | 286 kts | 295° |
| 2026-04-25 19:28 | 51.47678 | -2.64500 | 10487 ft | 296 kts | 297° |
| 2026-04-25 19:28 | 51.48696 | -2.67517 | 10745 ft | 319 kts | 299° |
| 2026-04-25 19:28 | 51.49858 | -2.70649 | 11256 ft | 332 kts | 301° |
| 2026-04-25 19:28 | 51.51088 | -2.73761 | 11976 ft | 336 kts | 302° |
| 2026-04-25 19:29 | 51.52383 | -2.76926 | 12745 ft | 340 kts | 303° |
| 2026-04-25 19:29 | 51.53903 | -2.79856 | 13493 ft | 345 kts | 321° |
| 2026-04-25 19:29 | 51.56072 | -2.81548 | 14199 ft | 351 kts | 347° |
| 2026-04-25 19:29 | 51.58515 | -2.82058 | 14907 ft | 355 kts | 353° |
| 2026-04-25 19:30 | 51.60952 | -2.82479 | 15577 ft | 358 kts | 351° |
| 2026-04-25 19:30 | 51.63425 | -2.83071 | 16245 ft | 360 kts | 349° |
| 2026-04-25 19:30 | 51.65904 | -2.83792 | 16910 ft | 363 kts | 347° |
| 2026-04-25 19:30 | 51.68401 | -2.84586 | 17565 ft | 366 kts | 346° |
| 2026-04-25 19:31 | 51.70913 | -2.85404 | 18216 ft | 370 kts | 346° |
| 2026-04-25 19:31 | 51.73449 | -2.86226 | 18835 ft | 372 kts | 346° |
| 2026-04-25 19:31 | 51.75985 | -2.87029 | 19546 ft | 370 kts | 347° |
| 2026-04-25 19:31 | 51.78515 | -2.87813 | 20157 ft | 372 kts | 347° |
| 2026-04-25 19:32 | 51.81070 | -2.88593 | 20746 ft | 374 kts | 347° |
| 2026-04-25 19:32 | 51.83605 | -2.89361 | 21320 ft | 377 kts | 347° |
| 2026-04-25 19:32 | 51.86195 | -2.90143 | 21886 ft | 380 kts | 347° |
| 2026-04-25 19:32 | 51.87922 | -2.90664 | 22260 ft | 382 kts | 347° |
| 2026-04-25 19:33 | 51.91437 | -2.91727 | 23010 ft | 385 kts | 347° |
| 2026-04-25 19:33 | 51.94085 | -2.92532 | 23572 ft | 388 kts | 347° |
| 2026-04-25 19:33 | 51.96751 | -2.93346 | 24069 ft | 391 kts | 347° |
| 2026-04-25 19:33 | 51.99434 | -2.94164 | 24536 ft | 393 kts | 347° |
| 2026-04-25 19:34 | 52.02125 | -2.94986 | 24997 ft | 395 kts | 347° |
| 2026-04-25 19:34 | 52.04835 | -2.95816 | 25446 ft | 397 kts | 347° |
| 2026-04-25 19:34 | 52.07527 | -2.96647 | 25880 ft | 399 kts | 346° |
| 2026-04-25 19:34 | 52.10254 | -2.97498 | 26313 ft | 400 kts | 346° |
| 2026-04-25 19:35 | 52.12997 | -2.98360 | 26736 ft | 402 kts | 346° |
| 2026-04-25 19:35 | 52.15765 | -2.99232 | 27150 ft | 404 kts | 346° |
| 2026-04-25 19:35 | 52.18531 | -3.00104 | 27557 ft | 406 kts | 346° |
| 2026-04-25 19:35 | 52.21330 | -3.00986 | 27953 ft | 408 kts | 346° |
| 2026-04-25 19:36 | 52.24122 | -3.01866 | 28347 ft | 410 kts | 346° |
| 2026-04-25 19:36 | 52.26938 | -3.02753 | 28742 ft | 412 kts | 345° |
| 2026-04-25 19:36 | 52.29738 | -3.03636 | 29109 ft | 414 kts | 345° |
| 2026-04-25 19:36 | 52.32577 | -3.04533 | 29469 ft | 416 kts | 345° |
| 2026-04-25 19:37 | 52.35435 | -3.05437 | 29847 ft | 418 kts | 345° |
| 2026-04-25 19:37 | 52.38299 | -3.06341 | 30189 ft | 420 kts | 345° |
| 2026-04-25 19:37 | 52.41182 | -3.07248 | 30479 ft | 423 kts | 345° |
| 2026-04-25 19:37 | 52.44079 | -3.08163 | 30755 ft | 425 kts | 345° |
| 2026-04-25 19:38 | 52.47000 | -3.09089 | 31020 ft | 427 kts | 345° |
| 2026-04-25 19:38 | 52.49923 | -3.10021 | 31281 ft | 429 kts | 345° |
| 2026-04-25 19:38 | 52.52832 | -3.10953 | 31522 ft | 432 kts | 345° |
| 2026-04-25 19:38 | 52.55781 | -3.11894 | 31795 ft | 433 kts | 345° |
| 2026-04-25 19:39 | 52.58748 | -3.12841 | 32024 ft | 435 kts | 345° |
| 2026-04-25 19:39 | 52.61740 | -3.13686 | 32313 ft | 438 kts | 351° |
| 2026-04-25 19:39 | 52.64805 | -3.13842 | 32628 ft | 442 kts | 359° |
| 2026-04-25 19:39 | 52.67890 | -3.13591 | 32836 ft | 445 kts | 0° |
| 2026-04-25 19:40 | 52.69943 | -3.13252 | 33000 ft | 448 kts | 6° |
| 2026-04-25 19:40 | 52.73993 | -3.11469 | 33390 ft | 454 kts | 19° |
| 2026-04-25 19:40 | 52.76878 | -3.09318 | 33706 ft | 455 kts | 22° |
| 2026-04-25 19:40 | 52.79741 | -3.07079 | 34020 ft | 454 kts | 22° |
| 2026-04-25 19:41 | 52.82598 | -3.04846 | 34196 ft | 454 kts | 22° |
| 2026-04-25 19:41 | 52.85426 | -3.02635 | 34228 ft | 446 kts | 22° |
| 2026-04-25 19:41 | 52.89138 | -2.99737 | 34222 ft | 443 kts | 21° |
| 2026-04-25 19:42 | 52.96783 | -2.94972 | 34227 ft | 440 kts | 18° |
| 2026-04-25 19:42 | 53.02527 | -2.91452 | 34226 ft | 440 kts | 18° |
| 2026-04-25 19:43 | 53.08281 | -2.87905 | 34227 ft | 440 kts | 18° |
| 2026-04-25 19:43 | 53.14024 | -2.84359 | 34228 ft | 440 kts | 18° |
| 2026-04-25 19:44 | 53.19725 | -2.80832 | 34229 ft | 440 kts | 18° |
| 2026-04-25 19:44 | 53.25467 | -2.77271 | 34224 ft | 439 kts | 18° |
| 2026-04-25 19:45 | 53.31199 | -2.73694 | 34220 ft | 439 kts | 18° |
| 2026-04-25 19:45 | 53.36948 | -2.70112 | 34216 ft | 439 kts | 18° |
| 2026-04-25 19:46 | 53.42636 | -2.66549 | 34223 ft | 439 kts | 19° |
| 2026-04-25 19:46 | 53.48371 | -2.62936 | 34227 ft | 439 kts | 19° |
| 2026-04-25 19:47 | 53.54097 | -2.59320 | 34231 ft | 439 kts | 19° |
| 2026-04-25 19:47 | 53.59819 | -2.55711 | 34239 ft | 439 kts | 19° |
| 2026-04-25 19:48 | 53.65510 | -2.52107 | 34244 ft | 439 kts | 19° |
| 2026-04-25 19:48 | 53.71232 | -2.48465 | 34247 ft | 439 kts | 19° |
| 2026-04-25 19:49 | 53.75056 | -2.46025 | 34241 ft | 439 kts | 19° |
| 2026-04-25 19:49 | 53.82645 | -2.41175 | 34245 ft | 440 kts | 19° |
| 2026-04-25 19:50 | 53.91261 | -2.35651 | 34248 ft | 441 kts | 19° |
| 2026-04-25 19:51 | 53.97041 | -2.32162 | 34250 ft | 440 kts | 12° |
| 2026-04-25 19:51 | 54.03099 | -2.31381 | 34249 ft | 437 kts | 352° |
| 2026-04-25 19:52 | 54.08895 | -2.33976 | 34255 ft | 433 kts | 336° |
| 2026-04-25 19:52 | 54.14494 | -2.37862 | 34086 ft | 436 kts | 336° |
| 2026-04-25 19:52 | 54.17318 | -2.39827 | 33814 ft | 436 kts | 336° |
| 2026-04-25 19:53 | 54.20130 | -2.41783 | 33538 ft | 436 kts | 336° |
| 2026-04-25 19:53 | 54.22945 | -2.43739 | 33266 ft | 434 kts | 336° |
| 2026-04-25 19:53 | 54.25732 | -2.45678 | 32999 ft | 432 kts | 336° |
| 2026-04-25 19:53 | 54.28505 | -2.47615 | 32735 ft | 430 kts | 336° |
| 2026-04-25 19:54 | 54.31233 | -2.49525 | 32468 ft | 428 kts | 336° |
| 2026-04-25 19:54 | 54.33982 | -2.51454 | 32200 ft | 426 kts | 336° |
| 2026-04-25 19:54 | 54.35825 | -2.52748 | 32042 ft | 424 kts | 336° |
| 2026-04-25 19:54 | 54.37635 | -2.54017 | 31873 ft | 423 kts | 336° |
| 2026-04-25 19:55 | 54.42154 | -2.57183 | 31447 ft | 419 kts | 336° |
| 2026-04-25 19:55 | 54.44848 | -2.59075 | 31199 ft | 418 kts | 336° |
| 2026-04-25 19:55 | 54.47535 | -2.60971 | 30948 ft | 416 kts | 336° |
| 2026-04-25 19:55 | 54.50213 | -2.62865 | 30706 ft | 414 kts | 335° |
| 2026-04-25 19:56 | 54.51973 | -2.64112 | 30550 ft | 413 kts | 335° |
| 2026-04-25 19:56 | 54.54626 | -2.65992 | 30292 ft | 411 kts | 335° |
| 2026-04-25 19:56 | 54.57268 | -2.67865 | 30010 ft | 409 kts | 335° |
| 2026-04-25 19:56 | 54.59897 | -2.69732 | 29728 ft | 407 kts | 335° |
| 2026-04-25 19:57 | 54.62514 | -2.71592 | 29454 ft | 405 kts | 335° |
| 2026-04-25 19:57 | 54.65115 | -2.73443 | 29167 ft | 403 kts | 335° |
| 2026-04-25 19:57 | 54.67703 | -2.75289 | 28889 ft | 402 kts | 335° |
| 2026-04-25 19:57 | 54.70281 | -2.77132 | 28624 ft | 400 kts | 335° |
| 2026-04-25 19:58 | 54.72811 | -2.78940 | 28351 ft | 398 kts | 335° |
| 2026-04-25 19:58 | 54.75374 | -2.80769 | 28087 ft | 396 kts | 335° |
| 2026-04-25 19:58 | 54.77919 | -2.82591 | 27823 ft | 395 kts | 335° |
| 2026-04-25 19:58 | 54.80450 | -2.84411 | 27551 ft | 391 kts | 335° |
| 2026-04-25 19:59 | 54.82950 | -2.86210 | 27109 ft | 387 kts | 335° |
| 2026-04-25 19:59 | 54.85428 | -2.87999 | 26657 ft | 383 kts | 335° |
| 2026-04-25 19:59 | 54.87880 | -2.89771 | 26208 ft | 380 kts | 335° |
| 2026-04-25 19:59 | 54.90322 | -2.91536 | 25666 ft | 381 kts | 335° |
| 2026-04-25 20:00 | 54.92769 | -2.93300 | 25135 ft | 380 kts | 335° |
| 2026-04-25 20:00 | 54.94391 | -2.94468 | 24787 ft | 380 kts | 335° |
| 2026-04-25 20:00 | 54.97590 | -2.96780 | 24363 ft | 371 kts | 335° |
| 2026-04-25 20:00 | 54.99967 | -2.98506 | 23954 ft | 367 kts | 335° |
| 2026-04-25 20:01 | 55.04645 | -3.01908 | 22988 ft | 362 kts | 335° |
| 2026-04-25 20:01 | 55.06962 | -3.03593 | 22498 ft | 358 kts | 335° |
| 2026-04-25 20:01 | 55.09252 | -3.05257 | 21813 ft | 355 kts | 335° |
| 2026-04-25 20:02 | 55.11530 | -3.06918 | 21223 ft | 353 kts | 335° |
| 2026-04-25 20:02 | 55.13763 | -3.08552 | 20666 ft | 351 kts | 335° |
| 2026-04-25 20:02 | 55.16010 | -3.10201 | 20108 ft | 348 kts | 335° |
| 2026-04-25 20:02 | 55.18231 | -3.11839 | 19570 ft | 346 kts | 335° |
| 2026-04-25 20:03 | 55.20454 | -3.13482 | 19046 ft | 344 kts | 335° |
| 2026-04-25 20:03 | 55.22663 | -3.15118 | 18555 ft | 344 kts | 335° |
| 2026-04-25 20:03 | 55.24865 | -3.16756 | 18107 ft | 342 kts | 335° |
| 2026-04-25 20:03 | 55.27022 | -3.18365 | 17676 ft | 339 kts | 335° |
| 2026-04-25 20:04 | 55.29192 | -3.19989 | 17098 ft | 337 kts | 335° |
| 2026-04-25 20:04 | 55.31347 | -3.21607 | 16567 ft | 335 kts | 335° |
| 2026-04-25 20:04 | 55.33483 | -3.23216 | 16044 ft | 333 kts | 335° |
| 2026-04-25 20:04 | 55.35605 | -3.24819 | 15543 ft | 331 kts | 335° |
| 2026-04-25 20:05 | 55.37715 | -3.26422 | 15029 ft | 329 kts | 335° |
| 2026-04-25 20:05 | 55.39781 | -3.27997 | 14550 ft | 327 kts | 334° |
| 2026-04-25 20:05 | 55.41866 | -3.29591 | 14064 ft | 325 kts | 335° |
| 2026-04-25 20:05 | 55.43936 | -3.31181 | 13527 ft | 323 kts | 335° |
| 2026-04-25 20:06 | 55.45993 | -3.32762 | 13017 ft | 321 kts | 335° |
| 2026-04-25 20:06 | 55.48034 | -3.34330 | 12509 ft | 319 kts | 335° |
| 2026-04-25 20:06 | 55.50062 | -3.35892 | 12003 ft | 316 kts | 335° |
| 2026-04-25 20:06 | 55.52070 | -3.37439 | 11527 ft | 315 kts | 334° |
| 2026-04-25 20:07 | 55.54079 | -3.38988 | 11165 ft | 313 kts | 334° |
| 2026-04-25 20:07 | 55.56067 | -3.40520 | 10766 ft | 311 kts | 334° |
| 2026-04-25 20:07 | 55.58045 | -3.42044 | 10388 ft | 309 kts | 334° |
| 2026-04-25 20:07 | 55.59960 | -3.43517 | 10072 ft | 294 kts | 335° |
| 2026-04-25 20:08 | 55.61823 | -3.44946 | 9515 ft | 290 kts | 335° |
| 2026-04-25 20:08 | 55.63663 | -3.46360 | 9093 ft | 287 kts | 335° |
| 2026-04-25 20:08 | 55.65466 | -3.47741 | 8729 ft | 284 kts | 334° |
| 2026-04-25 20:08 | 55.67273 | -3.49126 | 8407 ft | 281 kts | 335° |
| 2026-04-25 20:09 | 55.68997 | -3.50444 | 8277 ft | 262 kts | 334° |
| 2026-04-25 20:09 | 55.70626 | -3.51684 | 7980 ft | 249 kts | 334° |
| 2026-04-25 20:09 | 55.72208 | -3.52890 | 7638 ft | 246 kts | 334° |
| 2026-04-25 20:09 | 55.73687 | -3.54352 | 7334 ft | 241 kts | 322° |
| 2026-04-25 20:10 | 55.75016 | -3.56140 | 7017 ft | 238 kts | 320° |
| 2026-04-25 20:10 | 55.76316 | -3.57966 | 6663 ft | 237 kts | 319° |
| 2026-04-25 20:10 | 55.77600 | -3.59785 | 6335 ft | 235 kts | 319° |
| 2026-04-25 20:10 | 55.78879 | -3.61593 | 5956 ft | 234 kts | 319° |
| 2026-04-25 20:11 | 55.80155 | -3.63390 | 5538 ft | 232 kts | 319° |
| 2026-04-25 20:11 | 55.81471 | -3.64943 | 5179 ft | 226 kts | 338° |
| 2026-04-25 20:11 | 55.82994 | -3.65439 | 4715 ft | 227 kts | 360° |
| 2026-04-25 20:11 | 55.84541 | -3.64925 | 4220 ft | 228 kts | 22° |
| 2026-04-25 20:12 | 55.85879 | -3.63447 | 3682 ft | 229 kts | 44° |
| 2026-04-25 20:12 | 55.86833 | -3.61187 | 3175 ft | 227 kts | 60° |
| 2026-04-25 20:12 | 55.87641 | -3.58828 | 2832 ft | 219 kts | 60° |
| 2026-04-25 20:12 | 55.88157 | -3.57329 | 2621 ft | 207 kts | 60° |
| 2026-04-25 20:13 | 55.89110 | -3.54548 | 2297 ft | 188 kts | 62° |
| 2026-04-25 20:13 | 55.89770 | -3.52618 | 2023 ft | 175 kts | 62° |
| 2026-04-25 20:13 | 55.90377 | -3.50841 | 1779 ft | 160 kts | 62° |
| 2026-04-25 20:13 | 55.90913 | -3.49269 | 1578 ft | 142 kts | 62° |
| 2026-04-25 20:14 | 55.91412 | -3.47806 | 1376 ft | 132 kts | 62° |
| 2026-04-25 20:14 | 55.91877 | -3.46436 | 1193 ft | 129 kts | 61° |
| 2026-04-25 20:14 | 55.92338 | -3.45083 | 1002 ft | 128 kts | 60° |
| 2026-04-25 20:14 | 55.92799 | -3.43726 | 822 ft | 128 kts | 60° |
| 2026-04-25 20:15 | 55.93257 | -3.42376 | 643 ft | 127 kts | 59° |
| 2026-04-25 20:15 | 55.93711 | -3.41037 | 459 ft | 127 kts | 60° |
| 2026-04-25 20:15 | 55.94166 | -3.39701 | 291 ft | 125 kts | 59° |
| 2026-04-25 20:15 | 55.94618 | -3.38373 | 126 ft | 125 kts | 59° |
| 2026-04-25 20:16 | 55.94997 | -3.37255 | 112 ft | 70 kts | 59° |
| 2026-04-25 20:16 | 55.95159 | -3.36775 | 114 ft | 27 kts | 58° |
| 2026-04-25 20:16 | 55.95241 | -3.36536 | 112 ft | 15 kts | 59° |
| 2026-04-25 20:16 | 55.95234 | -3.36399 | 112 ft | 11 kts | 141° |
| 2026-04-25 20:17 | 55.95187 | -3.36344 | 115 ft | 6 kts | 149° |
| 2026-04-25 20:17 | 55.95182 | -3.36339 | 116 ft | 0 kts | 149° |
| 2026-04-25 20:18 | 55.95177 | -3.36333 | 116 ft | 6 kts | 149° |
| 2026-04-25 20:18 | 55.95118 | -3.36334 | 113 ft | 9 kts | 224° |
| 2026-04-25 20:18 | 55.95086 | -3.36426 | 115 ft | 8 kts | 239° |
| 2026-04-25 20:18 | 55.95056 | -3.36515 | 114 ft | 10 kts | 239° |
| 2026-04-25 20:19 | 55.95013 | -3.36640 | 114 ft | 12 kts | 238° |
| 2026-04-25 20:19 | 55.94972 | -3.36762 | 114 ft | 11 kts | 239° |
| 2026-04-25 20:19 | 55.94914 | -3.36817 | 114 ft | 10 kts | 166° |
| 2026-04-25 20:19 | 55.94826 | -3.36779 | 116 ft | 14 kts | 177° |
| 2026-04-25 20:20 | 55.94743 | -3.36742 | 114 ft | 14 kts | 165° |
| 2026-04-25 20:20 | 55.94641 | -3.36735 | 116 ft | 14 kts | 179° |
| 2026-04-25 20:20 | 55.94579 | -3.36727 | 116 ft | 4 kts | 153° |
| 2026-04-25 20:20 | 55.94571 | -3.36687 | 116 ft | 3 kts | 98° |
| 2026-04-25 20:21 | 55.94571 | -3.36659 | 116 ft | 2 kts | 88° |
| 2026-04-25 20:21 | 55.94571 | -3.36641 | 116 ft | 2 kts | 88° |
| 2026-04-25 20:21 | 55.94571 | -3.36625 | 116 ft | 0 kts | 88° |